Latest Conditions
At L.F.Wade Int. Airport
Recorded at 11:55 am
Showers
Temp.: 
21°C/70°F
Humidity: 
81%
Wind: 
SSE 14KT
or 16mph
Island Observations
 
Observations
Friday, April 12, 2024

Observations are in local time and taken at least once an hour, or upon the start and end of specified events such as showers and thunderstorms.

Time Sky / Weather Wind Speed/Gusts Temp. R.H. Pressure
     knots (mph)  °C (°F)  %  mb / "Hg
 11:55 Mostly Cloudy Showers SSE 14/0 (16/0) 21(70) 81 1026 / 30.31
 11:27 Mostly Cloudy Showers S 15/0 (17/0) 21(70) 82 1026 / 30.31
 10:55 Mostly Cloudy Showers S 12/0 (14/0) 21(70) 79 1027 / 30.33
 09:55 Mostly Cloudy  SSE 13/0 (15/0) 21(70) 80 1026 / 30.31
 09:43 Mostly Cloudy Showers SSE 13/0 (15/0) 21(70) 81 1026 / 30.30
 09:30 Mostly Cloudy Showers S 13/0 (15/0) 20(69) 84 1026 / 30.30
 08:55 Mostly Cloudy  SSE 14/0 (16/0) 21(69) 81 1026 / 30.30
 07:55 Mostly Cloudy  SSE 12/0 (14/0) 20(68) 82 1026 / 30.30
 06:55 Mostly Cloudy  SSE 13/0 (15/0) 20(67) 84 1026 / 30.29
 05:55 Mostly Cloudy  S 12/0 (14/0) 20(67) 82 1026 / 30.29
 04:55 Mostly Cloudy  SSE 13/0 (15/0) 20(67) 83 1026 / 30.29
 03:55 Mostly Cloudy  SSE 11/0 (13/0) 20(67) 82 1026 / 30.30
 02:55 Mostly Cloudy  SSE 12/0 (14/0) 20(67) 85 1027 / 30.32
 01:55 Mostly Cloudy  SSE 10/0 (12/0) 20(67) 83 1027 / 30.34
 00:55 Partly Cloudy  SSE 10/0 (12/0) 20(67) 83 1028 / 30.35
 23:55 Partly Cloudy  SSE 8/0 (9/0) 20(67) 84 1028 / 30.35
 22:55 Mostly Cloudy  SSE 7/0 (8/0) 19(67) 83 1028 / 30.35
 21:55 Mostly Cloudy  SE 6/0 (7/0) 19(67) 85 1028 / 30.35
 20:55 Mostly Cloudy  SE 7/0 (8/0) 19(67) 81 1027 / 30.34
 19:55 Partly Cloudy  SE 6/0 (7/0) 19(67) 80 1027 / 30.33
 18:55 Mostly Cloudy  S 5/0 (6/0) 20(68) 74 1027 / 30.33
 17:55 Mostly Cloudy  S 6/0 (7/0) 21(69) 71 1027 / 30.33
 16:55 Mostly Cloudy  SSW 7/0 (8/0) 21(69) 70 1026 / 30.31
 15:55 Few Clouds  S 7/0 (8/0) 21(70) 68 1026 / 30.30
 14:55 Few Clouds  SSW 8/0 (9/0) 21(70) 70 1026 / 30.31
 13:55 Few Clouds  S 8/0 (9/0) 21(70) 71 1026 / 30.31
 12:55 Few Clouds  SSW 8/0 (9/0) 21(70) 73 1027 / 30.32
 11:55 Few Clouds  SSW 8/0 (9/0) 20(69) 74 1027 / 30.32
 10:55 Few Clouds  SSW 6/0 (7/0) 21(69) 71 1027 / 30.33
 09:55 Partly Cloudy  S 6/0 (7/0) 20(68) 76 1026 / 30.30
 08:55 Few Clouds  S 5/0 (6/0) 19(67) 84 1025 / 30.28
 07:55 Partly Cloudy  SSW 4/0 (5/0) 18(64) 95 1026 / 30.29
 06:55 Partly Cloudy  SSW 4/0 (5/0) 17(63) 94 1025 / 30.27
 05:55 Mostly Cloudy  W 4/0 (5/0) 17(63) 94 1025 / 30.26
 04:55 Mostly Cloudy  SW 6/0 (7/0) 17(63) 92 1025 / 30.26
 03:55 Mostly Cloudy  WSW 4/0 (5/0) 17(63) 95 1025 / 30.26
 02:55 Mostly Cloudy  SW 5/0 (6/0) 18(64) 93 1024 / 30.25
 01:55 Partly Cloudy  SW 5/0 (6/0) 18(64) 89 1025 / 30.26
 00:55 Partly Cloudy  WNW 4/0 (5/0) 18(64) 89 1025 / 30.27
 23:55 Partly Cloudy  WNW 5/0 (6/0) 18(64) 87 1025 / 30.26
 22:55 Mostly Cloudy  W 9/0 (10/0) 18(65) 86 1025 / 30.27
 21:55 Mostly Cloudy  W 7/0 (8/0) 18(65) 86 1025 / 30.27
 20:55 Mostly Cloudy  WNW 9/0 (10/0) 19(65) 84 1025 / 30.26
 19:55 Mostly Cloudy  WNW 12/0 (14/0) 19(66) 82 1024 / 30.24
 18:55 Mostly Cloudy  W 14/0 (16/0) 19(66) 79 1024 / 30.23
 17:55 Mostly Cloudy  W 12/0 (14/0) 20(68) 75 1024 / 30.23
 16:55 Mostly Cloudy  W 12/0 (14/0) 20(69) 72 1024 / 30.23
 15:55 Mostly Cloudy  W 13/0 (15/0) 20(69) 73 1023 / 30.22
 14:55 Mostly Cloudy  W 12/0 (14/0) 21(70) 69 1024 / 30.24
 13:55 Mostly Cloudy  W 13/0 (15/0) 20(69) 70 1024 / 30.25
 12:55 Mostly Cloudy  W 12/0 (14/0) 21(69) 71 1024 / 30.24
 11:55 Partly Cloudy  W 12/0 (14/0) 20(68) 70 1024 / 30.24
 10:55 Few Clouds  W 12/0 (14/0) 20(68) 71 1024 / 30.23
 09:55 Few Clouds  W 15/0 (17/0) 19(67) 69 1024 / 30.23
 08:55 Few Clouds  W 14/0 (16/0) 19(65) 69 1023 / 30.20
 07:55 Few Clouds  W 11/0 (13/0) 18(64) 74 1022 / 30.19
 06:55 Mostly Cloudy  W 9/0 (10/0) 17(63) 74 1022 / 30.17
 05:55 Mostly Cloudy  WNW 9/0 (10/0) 18(64) 73 1022 / 30.17
 04:55 Mostly Cloudy  WNW 10/0 (12/0) 18(64) 73 1021 / 30.16
 03:55 Partly Cloudy  WNW 10/0 (12/0) 17(63) 72 1022 / 30.17
 02:55 Partly Cloudy  W 12/0 (14/0) 17(63) 72 1022 / 30.17
 01:55 Mostly Cloudy  W 11/0 (13/0) 18(64) 72 1022 / 30.19
 00:55 Partly Cloudy  NW 8/0 (9/0) 18(64) 67 1023 / 30.20
 23:55 Mostly Cloudy  WNW 10/0 (12/0) 18(64) 66 1023 / 30.21
 22:55 Mostly Cloudy  WNW 11/0 (13/0) 18(64) 65 1023 / 30.22
 21:55 Mostly Cloudy  WNW 10/0 (12/0) 18(64) 66 1023 / 30.21
 20:55 Mostly Cloudy  WNW 11/0 (13/0) 17(63) 64 1023 / 30.20
 19:55 Mostly Cloudy  WNW 10/0 (12/0) 17(63) 64 1022 / 30.18
 18:55 Mostly Cloudy  WNW 14/0 (16/0) 18(64) 59 1022 / 30.18
 17:55 Mostly Cloudy  WNW 13/0 (15/0) 19(65) 61 1022 / 30.18
 16:55 Mostly Cloudy  WNW 13/0 (15/0) 19(65) 59 1022 / 30.18
 15:55 Mostly Cloudy  WNW 13/0 (15/0) 19(67) 56 1022 / 30.18
 14:55 Mostly Cloudy  WNW 13/0 (15/0) 20(68) 55 1023 / 30.20
 13:55 Mostly Cloudy  NW 12/0 (14/0) 20(68) 58 1023 / 30.21
 12:55 Partly Cloudy  NW 11/0 (13/0) 20(67) 53 1023 / 30.20
 11:55 Mostly Cloudy  NW 14/0 (16/0) 18(65) 57 1023 / 30.20
 10:55 Mostly Cloudy  NNW 12/0 (14/0) 18(65) 57 1022 / 30.19
 09:55 Mostly Cloudy  N 10/0 (12/0) 18(64) 60 1022 / 30.19
 08:55 Mostly Cloudy  NNW 8/0 (9/0) 17(63) 59 1021 / 30.16
 07:55 Mostly Cloudy  NNW 11/0 (13/0) 17(62) 60 1021 / 30.15
 06:55 Mostly Cloudy  NNW 10/0 (12/0) 17(62) 61 1020 / 30.13
 05:55 Mostly Cloudy  N 10/0 (12/0) 16(62) 62 1020 / 30.13
 04:55 Mostly Cloudy  NW 12/0 (14/0) 17(62) 55 1020 / 30.13
 03:55 Mostly Cloudy  N 9/0 (10/0) 16(62) 64 1020 / 30.12
 02:55 Mostly Cloudy  N 10/0 (12/0) 16(62) 62 1020 / 30.12
 01:55 Mostly Cloudy  N 11/0 (13/0) 16(62) 62 1021 / 30.14
 00:55 Partly Cloudy  N 13/0 (15/0) 16(61) 58 1020 / 30.13
 23:55 Mostly Cloudy  NNW 12/0 (14/0) 17(62) 59 1020 / 30.13
 22:55 Mostly Cloudy  NNW 13/0 (15/0) 17(62) 60 1020 / 30.11
 21:55 Mostly Cloudy  NNW 13/0 (15/0) 17(62) 59 1020 / 30.11
 21:11 Partly Cloudy  NNW 15/25 (17/29) 16(61) 58 1019 / 30.09
 20:55 Partly Cloudy Showers N 16/0 (18/0) 16(61) 61 1019 / 30.08
 20:08 Mostly Cloudy Showers N 17/0 (20/0) 17(62) 68 1018 / 30.07
 19:55 Mostly Cloudy Showers NNW 16/0 (18/0) 17(62) 71 1018 / 30.06
 19:43 Mostly Cloudy Showers N 18/0 (21/0) 17(62) 64 1018 / 30.06
 19:37 Mostly Cloudy Showers N 18/0 (21/0) 17(62) 67 1018 / 30.06
 18:55 Mostly Cloudy Showers NNW 18/0 (21/0) 17(62) 64 1017 / 30.04
 17:55 Mostly Cloudy Showers NW 18/0 (21/0) 17(63) 64 1017 / 30.02
 16:55 Mostly Cloudy Showers NNW 16/0 (18/0) 16(61) 69 1017 / 30.02
 16:32 Mostly Cloudy Showers N 19/0 (22/0) 16(60) 78 1016 / 30.01
Island AWOS